Time;durP1;ratioP1;P1;durP2;ratioP2;P2;SDS_P1;SDS_P2;PMS_P1;PMS_P2;Temp;Humidity;BMP_temperature;BMP_pressure;BME280_temperature;BME280_humidity;BME280_pressure;Samples;Min_cycle;Max_cycle;Signal;HPM_P1;HPM_P2
2022/04/23 00:00:59;;;;;;;13.88;3.58;;;;;;;8.31;69.31;99340.91;5033162;28;20123;-52
2022/04/23 00:03:26;;;;;;;12.73;4.75;;;;;;;8.33;69.36;99338.31;5044272;28;20137;-45
2022/04/23 00:05:53;;;;;;;13.90;4.65;;;;;;;8.29;69.35;99328.88;5046054;28;20672;-43
2022/04/23 00:08:19;;;;;;;12.77;4.50;;;;;;;8.31;69.30;99327.16;5044868;28;20091;-51
2022/04/23 00:10:46;;;;;;;13.07;4.13;;;;;;;8.31;69.28;99324.59;5044491;28;20095;-43
2022/04/23 00:13:13;;;;;;;14.40;3.33;;;;;;;8.30;70.18;99318.56;5032333;28;20104;-46
2022/04/23 00:15:40;;;;;;;13.32;4.10;;;;;;;8.30;69.71;99317.69;5036507;28;20094;-43
2022/04/23 00:18:08;;;;;;;10.43;3.92;;;;;;;8.32;69.57;99316.84;5043103;28;20080;-43
2022/04/23 00:20:36;;;;;;;12.80;4.35;;;;;;;8.30;69.14;99312.53;5039204;28;20095;-43
2022/04/23 00:23:04;;;;;;;15.60;4.43;;;;;;;8.30;69.32;99317.69;5033765;28;20064;-43
2022/04/23 00:25:34;;;;;;;13.63;3.72;;;;;;;8.26;70.42;99309.13;5035464;28;20065;-52
2022/04/23 00:28:01;;;;;;;12.38;4.10;;;;;;;8.27;69.84;99313.41;5020268;28;20069;-50
2022/04/23 00:30:28;;;;;;;12.40;3.85;;;;;;;8.30;70.35;99312.53;5041141;28;20098;-48
2022/04/23 00:32:59;;;;;;;11.63;4.30;;;;;;;8.30;69.55;99307.38;5033937;28;20222;-45
2022/04/23 00:35:26;;;;;;;15.00;4.78;;;;;;;8.30;70.91;99294.47;5020066;28;20458;-43
2022/04/23 00:37:52;;;;;;;9.30;3.58;;;;;;;8.31;69.80;99309.09;5037556;28;20106;-47
2022/04/23 00:40:21;;;;;;;11.30;3.83;;;;;;;8.31;69.55;99303.94;5033908;28;20049;-46
2022/04/23 00:45:26;;;;;;;16.45;4.07;;;;;;;8.33;69.09;99289.31;5077875;27;20128;-43
2022/04/23 00:47:54;;;;;;;13.82;4.88;;;;;;;8.36;69.83;99286.72;5082413;28;20051;-45
2022/04/23 00:50:21;;;;;;;16.38;5.18;;;;;;;8.36;69.98;99284.13;5064409;28;20761;-47
2022/04/23 00:55:25;;;;;;;13.65;4.47;;;;;;;8.41;69.25;99284.94;5120065;27;20684;-46
2022/04/23 00:57:52;;;;;;;19.15;7.30;;;;;;;8.38;69.91;99285.00;5073791;28;20503;-41
2022/04/23 01:00:18;;;;;;;21.73;6.43;;;;;;;8.37;70.59;99283.25;5073878;28;20053;-42
2022/04/23 01:02:45;;;;;;;13.75;5.50;;;;;;;8.41;69.37;99273.78;5071711;28;20102;-40
2022/04/23 01:05:12;;;;;;;13.63;5.35;;;;;;;8.43;70.03;99280.66;5076042;28;20059;-49
2022/04/23 01:07:42;;;;;;;15.57;6.60;;;;;;;8.47;69.40;99278.88;5069678;28;20056;-44
2022/04/23 01:10:10;;;;;;;17.13;6.47;;;;;;;8.49;70.07;99270.25;5066561;28;20546;-47
2022/04/23 01:12:38;;;;;;;21.35;7.95;;;;;;;8.49;69.25;99272.84;5070381;28;20072;-45
2022/04/23 01:15:07;;;;;;;22.10;6.70;;;;;;;8.52;70.09;99276.28;5083708;28;20093;-42
2022/04/23 01:17:34;;;;;;;18.13;6.78;;;;;;;8.54;70.06;99269.44;5066166;28;20080;-43
2022/04/23 01:20:06;;;;;;;16.55;7.85;;;;;;;8.58;69.93;99276.28;5045888;28;20049;-43
2022/04/23 01:22:33;;;;;;;19.00;6.95;;;;;;;8.61;69.55;99260.75;5067611;28;20052;-43
2022/04/23 01:25:00;;;;;;;18.92;7.05;;;;;;;8.65;70.35;99266.75;5071257;28;20095;-49
2022/04/23 01:27:29;;;;;;;14.13;7.38;;;;;;;8.66;70.57;99271.91;5067326;28;20109;-46
2022/04/23 01:29:56;;;;;;;21.35;7.95;;;;;;;8.68;70.40;99267.59;5071367;28;20101;-47
2022/04/23 01:32:22;;;;;;;18.33;5.10;;;;;;;8.69;69.72;99264.16;5057789;28;20475;-49
2022/04/23 01:34:49;;;;;;;24.02;8.55;;;;;;;8.73;70.21;99260.69;5053240;28;20041;-47
2022/04/23 01:37:17;;;;;;;13.18;5.70;;;;;;;8.72;71.12;99258.94;5048882;28;20099;-42
2022/04/23 01:39:44;;;;;;;19.38;7.95;;;;;;;8.76;69.92;99264.09;5050001;28;20048;-44
2022/04/23 01:42:11;;;;;;;18.10;7.32;;;;;;;8.78;70.48;99258.03;5040121;28;20053;-48
2022/04/23 01:44:38;;;;;;;20.63;6.63;;;;;;;8.79;69.67;99267.53;5054120;28;20126;-45
2022/04/23 01:47:05;;;;;;;16.58;6.85;;;;;;;8.82;70.32;99261.47;5071244;28;20051;-44
2022/04/23 01:49:31;;;;;;;15.73;7.95;;;;;;;8.82;70.52;99264.88;5071033;28;20044;-42
2022/04/23 01:51:58;;;;;;;15.77;6.90;;;;;;;8.84;69.96;99259.72;5067206;28;20134;-47
2022/04/23 01:54:25;;;;;;;20.48;6.68;;;;;;;8.85;70.65;99269.19;5067873;28;20493;-40
2022/04/23 01:56:51;;;;;;;15.05;4.10;;;;;;;8.80;71.43;99250.28;5074701;28;20425;-41
2022/04/23 01:59:18;;;;;;;20.63;6.43;;;;;;;8.81;71.12;99257.19;5074731;28;20048;-45
2022/04/23 02:01:44;;;;;;;18.83;7.60;;;;;;;8.84;70.30;99257.13;5070803;28;20048;-43
2022/04/23 02:04:11;;;;;;;15.75;7.13;;;;;;;8.85;70.93;99253.72;5069727;28;20047;-45
2022/04/23 02:06:38;;;;;;;17.85;6.50;;;;;;;8.87;70.46;99257.13;5061616;28;20048;-48
2022/04/23 02:09:04;;;;;;;15.57;6.38;;;;;;;8.86;71.11;99252.81;5055528;28;20541;-45
2022/04/23 02:11:31;;;;;;;13.68;5.97;;;;;;;8.86;71.46;99250.25;5053570;28;20628;-51
2022/04/23 02:13:58;;;;;;;16.95;6.30;;;;;;;8.89;70.65;99252.81;5053335;28;20084;-46
2022/04/23 02:16:26;;;;;;;16.00;6.22;;;;;;;8.91;70.03;99248.47;5057220;28;20053;-43
2022/04/23 02:18:53;;;;;;;19.63;6.22;;;;;;;8.93;70.71;99256.22;5051389;28;20037;-44
2022/04/23 02:21:19;;;;;;;16.73;6.32;;;;;;;8.94;70.90;99255.31;5046731;28;20049;-43
2022/04/23 02:23:46;;;;;;;14.40;6.65;;;;;;;8.93;70.81;99251.91;5056883;28;20488;-44
2022/04/23 02:26:13;;;;;;;18.60;4.30;;;;;;;8.92;71.62;99250.19;5052509;28;20502;-41
2022/04/23 02:28:39;;;;;;;20.88;7.20;;;;;;;8.94;70.42;99247.59;5054912;28;20495;-45
2022/04/23 02:31:07;;;;;;;26.83;6.57;;;;;;;8.92;71.98;99245.00;5049455;28;20049;-43
2022/04/23 02:33:34;;;;;;;19.75;5.70;;;;;;;8.92;71.12;99239.84;5050993;28;20124;-55
2022/04/23 02:36:00;;;;;;;18.95;6.05;;;;;;;8.93;70.33;99236.41;5059301;28;20049;-48
2022/04/23 02:38:28;;;;;;;13.82;6.55;;;;;;;8.93;71.03;99235.53;5052904;28;20090;-44
2022/04/23 02:40:55;;;;;;;24.65;6.93;;;;;;;8.95;70.88;99242.41;5050906;28;20040;-44
2022/04/23 02:43:21;;;;;;;16.25;6.20;;;;;;;8.94;71.80;99238.13;5051266;28;20053;-47
2022/04/23 02:45:48;;;;;;;12.52;5.72;;;;;;;8.92;71.44;99239.84;5032265;28;20542;-45
2022/04/23 02:48:15;;;;;;;19.05;6.72;;;;;;;8.96;71.61;99230.38;5042067;28;20056;-44
2022/04/23 02:50:42;;;;;;;17.10;6.07;;;;;;;8.97;71.06;99232.94;5048070;28;20137;-43
2022/04/23 02:53:09;;;;;;;20.48;7.05;;;;;;;8.97;71.50;99235.50;5054803;28;20056;-49
2022/04/23 02:55:37;;;;;;;20.45;6.28;;;;;;;8.98;70.87;99228.59;5056117;28;20048;-49
2022/04/23 02:58:07;;;;;;;16.98;5.93;;;;;;;8.95;71.79;99229.50;5055958;28;20098;-44
2022/04/23 03:00:35;;;;;;;16.90;6.22;;;;;;;8.96;71.23;99223.47;5045517;28;20075;-44
2022/04/23 03:03:02;;;;;;;18.20;5.85;;;;;;;8.98;71.78;99229.47;5046161;28;20044;-44
2022/04/23 03:05:30;;;;;;;20.02;6.60;;;;;;;8.97;71.28;99225.19;5048687;28;20107;-51
2022/04/23 03:08:00;;;;;;;24.58;6.07;;;;;;;8.96;71.21;99223.47;5053609;28;20041;-42
2022/04/23 03:10:28;;;;;;;13.95;5.63;;;;;;;8.98;71.11;99221.72;5053095;28;20049;-49
2022/04/23 03:12:55;;;;;;;11.75;5.30;;;;;;;8.96;71.89;99226.06;5051170;28;20098;-48
2022/04/23 03:15:23;;;;;;;20.20;6.35;;;;;;;9.00;71.11;99222.56;5052791;28;20118;-43
2022/04/23 03:17:50;;;;;;;18.95;5.65;;;;;;;8.98;71.44;99219.13;5048615;28;20488;-45
2022/04/23 03:20:17;;;;;;;15.82;5.45;;;;;;;8.99;71.45;99209.69;5052543;28;20048;-45
2022/04/23 03:22:44;;;;;;;13.68;5.10;;;;;;;8.95;72.06;99214.00;5059229;28;20695;-53
2022/04/23 03:25:12;;;;;;;17.13;5.65;;;;;;;8.91;72.43;99217.47;5049552;28;20060;-43
2022/04/23 03:27:39;;;;;;;16.35;5.97;;;;;;;8.92;72.03;99219.19;5049912;28;20110;-42
2022/04/23 03:30:07;;;;;;;19.90;6.07;;;;;;;8.95;71.44;99203.66;5059384;28;20053;-42
2022/04/23 03:32:34;;;;;;;13.27;4.57;;;;;;;8.89;72.25;99185.66;5045488;28;20080;-44
2022/04/23 03:35:01;;;;;;;15.88;5.80;;;;;;;8.91;72.32;99207.16;5048929;28;20044;-47
2022/04/23 03:37:28;;;;;;;18.20;5.07;;;;;;;8.91;70.85;99196.81;5051500;28;20053;-42
2022/04/23 03:39:55;;;;;;;15.82;5.78;;;;;;;8.91;71.85;99194.25;5050576;28;20462;-43
2022/04/23 03:42:21;;;;;;;22.52;5.97;;;;;;;8.88;71.52;99181.34;5059005;28;20049;-43
2022/04/23 03:44:48;;;;;;;20.33;6.10;;;;;;;8.86;72.21;99191.69;5056509;28;20036;-51
2022/04/23 03:47:15;;;;;;;14.80;5.80;;;;;;;8.85;72.48;99181.41;5054672;28;20045;-46
2022/04/23 03:49:42;;;;;;;13.85;5.40;;;;;;;8.83;72.39;99188.28;5051747;28;20045;-43
2022/04/23 03:52:10;;;;;;;17.55;6.25;;;;;;;8.84;72.18;99190.00;5053367;28;20072;-45
2022/04/23 03:54:38;;;;;;;19.60;5.80;;;;;;;8.86;71.88;99185.69;5055865;28;20038;-51
2022/04/23 03:57:06;;;;;;;14.50;5.55;;;;;;;8.85;72.18;99181.41;5053551;28;20496;-44
2022/04/23 03:59:35;;;;;;;14.20;5.65;;;;;;;8.86;71.65;99173.63;5046814;28;20118;-48
2022/04/23 04:02:04;;;;;;;22.50;5.88;;;;;;;8.84;72.32;99170.22;5054319;28;20044;-43
2022/04/23 04:04:32;;;;;;;12.75;5.63;;;;;;;8.85;72.67;99184.00;5049079;28;20045;-50
2022/04/23 04:07:00;;;;;;;16.45;6.15;;;;;;;8.82;73.00;99179.69;5044883;28;20057;-47
2022/04/23 04:09:28;;;;;;;18.08;6.40;;;;;;;8.84;72.83;99187.41;5041461;28;20403;-40
2022/04/23 04:12:02;;;;;;;19.83;5.97;;;;;;;8.82;72.84;99181.44;5063179;28;20074;-45
2022/04/23 04:17:07;;;;;;;14.13;5.30;;;;;;;8.80;71.88;99183.16;5082559;27;20484;-44
2022/04/23 04:19:35;;;;;;;23.50;5.00;;;;;;;8.80;73.16;99183.16;5032978;28;20136;-48
2022/04/23 04:22:03;;;;;;;17.08;4.95;;;;;;;8.81;72.23;99180.56;5041133;28;20045;-43
2022/04/23 04:24:31;;;;;;;18.77;5.30;;;;;;;8.82;73.00;99176.25;5029865;28;20443;-41
2022/04/23 04:26:58;;;;;;;19.85;5.03;;;;;;;8.82;72.67;99173.69;5027340;28;20053;-43
2022/04/23 04:29:25;;;;;;;15.02;4.70;;;;;;;8.79;72.46;99166.81;5033840;28;20045;-42
2022/04/23 04:31:52;;;;;;;20.85;4.90;;;;;;;8.80;73.01;99168.53;5030894;28;20053;-52
2022/04/23 04:37:12;;;;;;;22.05;7.60;;;;;;;9.06;72.53;99166.56;5070910;27;20888;-40
2022/04/23 04:39:41;;;;;;;17.35;6.50;;;;;;;8.95;72.91;99174.41;5088654;28;20136;-48
2022/04/23 04:42:09;;;;;;;21.42;5.78;;;;;;;8.87;73.42;99169.31;5085860;28;20094;-47
2022/04/23 04:44:37;;;;;;;16.63;5.95;;;;;;;8.85;72.66;99171.06;5086906;28;20048;-45
2022/04/23 04:47:05;;;;;;;17.73;5.88;;;;;;;8.84;73.06;99174.50;5087081;28;20097;-45
2022/04/23 04:49:31;;;;;;;19.42;5.72;;;;;;;8.86;72.53;99177.94;5098775;28;20077;-44
2022/04/23 04:51:58;;;;;;;18.63;6.00;;;;;;;8.85;72.75;99176.25;5069079;28;20093;-45
2022/04/23 04:54:24;;;;;;;16.30;5.75;;;;;;;8.86;73.44;99172.78;5090753;28;20044;-45
2022/04/23 04:56:52;;;;;;;14.50;5.35;;;;;;;8.82;73.15;99171.09;5089585;28;20076;-41
2022/04/23 04:59:20;;;;;;;14.93;5.25;;;;;;;8.80;73.88;99178.00;5087362;28;20067;-53
2022/04/23 05:01:48;;;;;;;26.25;6.38;;;;;;;8.83;73.62;99177.97;5079573;28;20528;-40
2022/04/23 05:04:15;;;;;;;9.82;4.15;;;;;;;8.83;73.54;99183.13;5087219;28;20040;-42
2022/04/23 05:06:42;;;;;;;18.77;5.85;;;;;;;8.86;73.02;99177.94;5090453;28;20044;-44
2022/04/23 05:09:08;;;;;;;17.38;5.25;;;;;;;8.84;73.57;99177.94;5086015;28;20507;-44
2022/04/23 05:11:35;;;;;;;14.65;4.90;;;;;;;8.79;74.01;99174.56;5063178;28;20100;-45
2022/04/23 05:14:02;;;;;;;20.67;6.20;;;;;;;8.85;73.80;99179.66;5065229;28;20048;-50
2022/04/23 05:16:28;;;;;;;27.33;6.50;;;;;;;8.86;72.97;99172.78;5085359;28;20063;-45
2022/04/23 05:18:55;;;;;;;17.30;5.53;;;;;;;8.84;73.21;99177.09;5076622;28;20149;-44
2022/04/23 05:21:22;;;;;;;21.75;5.88;;;;;;;8.89;73.96;99175.34;5083870;28;20052;-45
2022/04/23 05:23:48;;;;;;;17.15;5.82;;;;;;;8.92;72.82;99172.69;5084884;28;20078;-42
2022/04/23 05:26:15;;;;;;;17.98;5.72;;;;;;;8.94;73.64;99176.13;5092048;28;20089;-51
2022/04/23 05:28:41;;;;;;;11.55;5.10;;;;;;;8.97;73.37;99173.53;5080427;28;20056;-48
2022/04/23 05:31:08;;;;;;;17.92;5.68;;;;;;;8.96;73.91;99179.56;5083971;28;20672;-43
2022/04/23 05:33:36;;;;;;;16.30;6.10;;;;;;;8.99;73.75;99178.69;5080857;28;20098;-48
2022/04/23 05:36:06;;;;;;;15.43;5.70;;;;;;;9.01;73.50;99176.91;5079095;28;20049;-42
2022/04/23 05:38:34;;;;;;;16.70;4.47;;;;;;;9.02;73.23;99182.94;5067228;28;20495;-43
2022/04/23 05:41:02;;;;;;;12.93;4.80;;;;;;;9.00;73.71;99181.25;5065508;28;20454;-43
2022/04/23 05:43:29;;;;;;;17.13;6.03;;;;;;;9.04;73.36;99165.69;5063470;28;20538;-53
2022/04/23 05:45:57;;;;;;;18.63;5.55;;;;;;;9.04;73.31;99163.09;5084979;28;20093;-43
2022/04/23 05:48:24;;;;;;;15.77;4.63;;;;;;;9.06;73.39;99161.38;5053572;28;20048;-45
2022/04/23 05:50:51;;;;;;;14.13;4.82;;;;;;;9.06;74.16;99169.13;5074798;28;20080;-42
2022/04/23 05:53:18;;;;;;;18.58;5.93;;;;;;;9.10;74.00;99155.31;5068260;28;20045;-43
2022/04/23 05:55:45;;;;;;;14.10;6.50;;;;;;;9.11;73.47;99165.63;5073352;28;20133;-45
2022/04/23 05:58:12;;;;;;;11.48;5.50;;;;;;;9.15;73.11;99163.84;5068938;28;20118;-42
2022/04/23 06:00:39;;;;;;;14.40;4.32;;;;;;;9.16;73.88;99164.72;5074904;28;20049;-46
2022/04/23 06:03:05;;;;;;;18.40;5.35;;;;;;;9.21;73.71;99173.25;5063041;28;20075;-41
2022/04/23 06:05:32;;;;;;;17.48;5.18;;;;;;;9.25;72.95;99164.59;5069802;28;20044;-45
2022/04/23 06:08:16;;;;;;;19.88;5.57;;;;;;;9.28;73.60;99180.06;5065954;28;20085;-43
2022/04/23 06:10:42;;;;;;;15.98;4.50;;;;;;;9.29;73.27;99165.44;5067195;28;20732;-42
2022/04/23 06:13:09;;;;;;;17.35;5.70;;;;;;;9.32;73.66;99160.25;5051763;28;20075;-44
2022/04/23 06:15:36;;;;;;;18.52;5.80;;;;;;;9.35;73.16;99165.34;5064408;28;20072;-43
2022/04/23 06:18:03;;;;;;;10.02;5.13;;;;;;;9.36;73.18;99161.91;5071972;28;20098;-51
2022/04/23 06:20:29;;;;;;;15.88;5.97;;;;;;;9.39;73.27;99162.72;5049122;28;20044;-46
2022/04/23 06:22:56;;;;;;;15.45;5.55;;;;;;;9.41;73.15;99167.88;5065179;28;20480;-47
2022/04/23 06:25:22;;;;;;;11.35;4.70;;;;;;;9.41;73.61;99165.28;5070397;28;20044;-50
2022/04/23 06:27:50;;;;;;;16.25;5.28;;;;;;;9.47;73.27;99170.38;5062482;28;21721;-41
2022/04/23 06:30:16;;;;;;;14.55;5.55;;;;;;;9.46;73.12;99163.50;5078285;28;20101;-47
2022/04/23 06:32:44;;;;;;;21.30;5.82;;;;;;;9.54;73.55;99178.91;5080314;28;20087;-41
2022/04/23 06:35:10;;;;;;;14.30;4.65;;;;;;;9.50;73.32;99165.16;5064968;28;20076;-45
2022/04/23 06:37:41;;;;;;;11.80;4.60;;;;;;;9.55;73.30;99177.19;5077359;28;20102;-47
2022/04/23 06:40:13;;;;;;;13.65;5.80;;;;;;;9.57;73.62;99160.78;5070395;28;20071;-44
2022/04/23 06:42:41;;;;;;;16.55;5.15;;;;;;;9.58;74.09;99171.97;5080711;28;20051;-41
2022/04/23 06:45:08;;;;;;;16.17;5.30;;;;;;;9.63;73.07;99165.03;5050451;28;20061;-50
2022/04/23 06:47:35;;;;;;;12.40;5.82;;;;;;;9.67;72.68;99171.88;5064960;28;20044;-46
2022/04/23 06:50:01;;;;;;;15.70;3.83;;;;;;;9.72;72.97;99175.22;5065028;28;20052;-44
2022/04/23 06:52:28;;;;;;;11.23;5.65;;;;;;;9.76;73.04;99179.50;5064327;28;20049;-45
2022/04/23 06:54:55;;;;;;;9.25;4.40;;;;;;;9.83;72.84;99176.84;5064759;28;20101;-48
2022/04/23 06:57:23;;;;;;;13.48;5.60;;;;;;;9.90;72.23;99181.03;5073110;28;20076;-47
2022/04/23 06:59:51;;;;;;;16.98;5.85;;;;;;;10.06;72.29;99173.06;5040127;28;20053;-44
2022/04/23 07:02:18;;;;;;;20.20;6.25;;;;;;;10.46;72.51;99180.22;5066680;28;20106;-48
2022/04/23 07:04:46;;;;;;;15.98;4.97;;;;;;;10.96;70.49;99170.75;5078170;28;20040;-51
2022/04/23 07:07:13;;;;;;;13.52;5.43;;;;;;;11.32;69.52;99176.97;5081969;28;20040;-50
2022/04/23 07:09:40;;;;;;;14.60;5.45;;;;;;;11.40;68.26;99181.16;5048761;28;20052;-44
2022/04/23 07:12:07;;;;;;;13.98;4.70;;;;;;;11.32;68.78;99174.38;5070686;28;20048;-43
2022/04/23 07:14:33;;;;;;;17.48;5.18;;;;;;;11.15;68.47;99177.28;5070441;28;20045;-44
2022/04/23 07:17:06;;;;;;;25.38;6.78;;;;;;;11.07;68.98;99196.47;5076646;28;20116;-45
2022/04/23 07:19:37;;;;;;;15.02;7.07;;;;;;;10.99;68.41;99196.59;5069821;28;20265;-45
2022/04/23 07:22:05;;;;;;;20.15;6.85;;;;;;;11.02;69.08;99191.38;5067487;28;20078;-51
2022/04/23 07:24:31;;;;;;;18.10;5.70;;;;;;;11.02;68.80;99191.38;5068110;28;20049;-48
2022/04/23 07:26:59;;;;;;;21.10;6.95;;;;;;;11.13;68.62;99198.94;5077875;28;20604;-45
2022/04/23 07:29:25;;;;;;;22.90;6.28;;;;;;;11.18;68.35;99194.53;5077659;28;20047;-53
2022/04/23 07:31:52;;;;;;;18.77;6.95;;;;;;;11.22;69.21;99193.59;5068925;28;20082;-52
2022/04/23 07:37:38;;;;;;;14.82;6.50;;;;;;;11.13;68.10;99199.81;5091932;28;20044;-50
2022/04/23 07:40:11;;;;;;;16.08;6.95;;;;;;;11.09;68.71;99198.16;5095940;28;20054;-49
2022/04/23 07:42:37;;;;;;;16.50;6.95;;;;;;;11.09;68.58;99202.47;5106903;28;20069;-48
2022/04/23 07:45:05;;;;;;;11.85;6.82;;;;;;;11.10;69.22;99189.50;5097530;28;20098;-44
2022/04/23 07:47:31;;;;;;;13.13;6.72;;;;;;;11.10;68.41;99184.31;5081411;28;20101;-44
2022/04/23 07:49:58;;;;;;;17.58;6.80;;;;;;;11.12;68.83;99192.06;5095183;28;20040;-48
2022/04/23 07:52:25;;;;;;;14.82;6.60;;;;;;;11.07;69.46;99193.88;5102997;28;20051;-40
2022/04/23 07:54:51;;;;;;;22.33;6.93;;;;;;;11.07;68.51;99194.72;5088191;28;20567;-42
2022/04/23 07:57:22;;;;;;;14.57;6.47;;;;;;;11.04;69.31;99200.81;5100288;28;20487;-41
2022/04/23 07:59:49;;;;;;;11.50;7.35;;;;;;;11.04;69.09;99200.81;5096788;28;20044;-46
2022/04/23 08:02:16;;;;;;;17.92;7.78;;;;;;;11.10;68.61;99199.00;5088602;28;20126;-45
2022/04/23 08:04:44;;;;;;;17.65;8.30;;;;;;;11.10;68.72;99193.81;5101454;28;20047;-46
2022/04/23 08:07:11;;;;;;;21.20;7.88;;;;;;;11.09;69.18;99197.28;5095250;28;20098;-40
2022/04/23 08:09:39;;;;;;;17.40;7.70;;;;;;;11.10;69.24;99193.81;5094810;28;20097;-42
2022/04/23 08:12:23;;;;;;;18.92;6.85;;;;;;;11.10;69.15;99199.00;5093172;28;20655;-41
2022/04/23 08:14:50;;;;;;;19.40;6.95;;;;;;;11.11;68.52;99195.53;5099183;28;20430;-41
2022/04/23 08:17:17;;;;;;;18.25;8.27;;;;;;;11.17;68.96;99190.22;5097298;28;20044;-50
2022/04/23 08:19:43;;;;;;;19.05;8.15;;;;;;;11.25;68.58;99201.28;5096770;28;20502;-46
2022/04/23 08:22:10;;;;;;;17.50;6.72;;;;;;;11.35;68.94;99195.94;5096465;28;20093;-48
2022/04/23 08:24:37;;;;;;;23.58;8.95;;;;;;;11.37;68.27;99204.53;5090085;28;20097;-41
2022/04/23 08:27:03;;;;;;;19.40;8.63;;;;;;;11.35;68.98;99199.38;5094073;28;20048;-43
2022/04/23 08:32:34;;;;;;;21.17;7.75;;;;;;;11.32;68.58;99210.66;5086372;28;20047;-51
2022/04/23 08:35:01;;;;;;;16.48;8.18;;;;;;;11.39;68.83;99200.19;5092983;28;20056;-45
2022/04/23 08:37:27;;;;;;;28.13;9.60;;;;;;;11.52;68.07;99191.25;5092954;28;20044;-43
2022/04/23 08:39:54;;;;;;;22.17;8.85;;;;;;;11.53;68.80;99198.19;5100059;28;20048;-40
2022/04/23 08:42:21;;;;;;;21.27;9.20;;;;;;;11.57;68.81;99199.81;5096892;28;20047;-47
2022/04/23 08:44:47;;;;;;;19.17;8.65;;;;;;;11.64;68.05;99204.88;5090539;28;20465;-42
2022/04/23 08:47:16;;;;;;;25.60;9.93;;;;;;;11.68;68.90;99197.00;5088356;28;20052;-43
2022/04/23 08:50:03;;;;;;;17.70;9.27;;;;;;;11.73;68.65;99186.53;5101386;28;20063;-46
2022/04/23 08:52:32;;;;;;;26.15;10.68;;;;;;;11.83;68.51;99185.44;5092879;28;20102;-51
2022/04/23 08:55:01;;;;;;;17.30;8.88;;;;;;;11.87;67.33;99195.75;5069979;28;20044;-46
2022/04/23 08:57:28;;;;;;;22.98;9.27;;;;;;;11.83;68.78;99206.19;5056117;28;20106;-48
2022/04/23 08:59:56;;;;;;;19.40;9.20;;;;;;;11.82;67.82;99214.00;5094997;28;20514;-45
2022/04/23 09:02:26;;;;;;;21.10;9.02;;;;;;;11.87;67.58;99196.59;5101512;28;20052;-43
2022/04/23 09:04:54;;;;;;;24.17;9.27;;;;;;;11.96;67.63;99190.38;5079204;28;20140;-45
2022/04/23 09:07:23;;;;;;;30.27;10.23;;;;;;;12.01;67.44;99204.09;5093032;28;20040;-43
2022/04/23 09:09:52;;;;;;;22.98;10.68;;;;;;;12.03;66.71;99207.47;5092835;28;20052;-48
2022/04/23 09:12:24;;;;;;;21.58;9.98;;;;;;;11.97;66.55;99194.66;5100763;28;20040;-47
2022/04/23 09:23:38;;;;;;;22.83;10.18;;;;;;;11.99;67.39;99221.41;5095221;28;20052;-43
2022/04/23 09:23:43;;;;;;;21.65;7.40;;;;;;;11.99;67.96;99205.00;5048334;28;20043;-43
2022/04/23 09:26:18;;;;;;;18.52;9.73;;;;;;;11.99;66.42;99210.19;5094003;28;20123;-49
2022/04/23 09:28:46;;;;;;;21.70;10.38;;;;;;;12.13;66.56;99207.31;5092515;28;20048;-46
2022/04/23 09:31:13;;;;;;;26.30;12.52;;;;;;;12.28;66.33;99206.97;5097230;28;20052;-42
2022/04/23 09:33:46;;;;;;;23.75;10.27;;;;;;;12.35;67.07;99225.84;5101549;28;20040;-45
2022/04/23 09:36:12;;;;;;;19.65;10.15;;;;;;;12.39;66.67;99205.88;5097076;28;20070;-42
2022/04/23 09:38:40;;;;;;;21.02;9.75;;;;;;;12.34;65.90;99224.16;5092966;28;20105;-44
2022/04/23 09:41:22;;;;;;;25.90;11.38;;;;;;;12.43;65.92;99215.31;5101243;28;20743;-45
2022/04/23 09:44:06;;;;;;;24.67;11.52;;;;;;;12.45;65.88;99222.16;5094127;28;20052;-44
2022/04/23 09:46:49;;;;;;;20.63;9.02;;;;;;;12.42;65.91;99223.97;5094852;28;20100;-40
2022/04/23 09:49:30;;;;;;;24.05;11.05;;;;;;;12.49;66.51;99225.53;5095661;28;20127;-47
2022/04/23 09:52:02;;;;;;;24.10;11.32;;;;;;;12.59;65.38;99216.63;5102916;28;20100;-43
2022/04/23 09:54:30;;;;;;;24.25;11.32;;;;;;;12.78;65.66;99226.56;5100452;28;20169;-43
2022/04/23 09:56:57;;;;;;;30.38;11.98;;;;;;;13.01;65.48;99221.66;5078689;28;20551;-45
2022/04/23 09:59:24;;;;;;;21.02;11.00;;;;;;;13.34;65.45;99216.47;5076810;28;20579;-48
2022/04/23 10:01:53;;;;;;;24.10;11.43;;;;;;;13.76;64.61;99220.50;5099379;28;20047;-45
2022/04/23 10:04:26;;;;;;;21.88;9.73;;;;;;;13.98;63.37;99217.25;5103585;28;20044;-48
2022/04/23 10:06:54;;;;;;;18.70;10.73;;;;;;;14.30;63.29;99215.44;5092544;28;20050;-45
2022/04/23 10:09:27;;;;;;;22.63;11.98;;;;;;;14.55;62.02;99201.59;5091160;28;20051;-52
2022/04/23 10:12:02;;;;;;;23.92;10.77;;;;;;;14.57;60.72;99197.22;5095863;28;20052;-50
2022/04/23 10:14:35;;;;;;;20.98;9.68;;;;;;;14.58;60.82;99206.72;5092516;28;20069;-47
2022/04/23 10:17:10;;;;;;;20.88;10.95;;;;;;;14.82;61.40;99201.63;5094276;28;20051;-46
2022/04/23 10:19:37;;;;;;;25.70;9.60;;;;;;;14.92;60.24;99199.53;5104179;28;20617;-50
2022/04/23 10:22:31;;;;;;;21.85;10.15;;;;;;;14.85;60.11;99201.50;5099644;28;20150;-51
2022/04/23 10:27:46;;;;;;;20.83;8.52;;;;;;;15.13;58.98;99194.50;5048405;27;20138;-43
2022/04/23 10:30:12;;;;;;;23.10;9.88;;;;;;;15.06;58.60;99188.63;5039141;28;20122;-42
2022/04/23 10:32:40;;;;;;;21.35;9.18;;;;;;;14.97;59.10;99194.19;5043000;28;20080;-46
2022/04/23 10:38:16;;;;;;;20.38;8.85;;;;;;;14.81;59.52;99193.84;5121479;27;20127;-46
2022/04/23 10:40:42;;;;;;;22.38;8.82;;;;;;;15.05;59.46;99202.59;5083466;28;20097;-44
2022/04/23 10:43:12;;;;;;;22.05;9.90;;;;;;;15.31;59.02;99200.81;5102973;28;20476;-45
2022/04/23 10:45:40;;;;;;;22.13;8.68;;;;;;;15.54;58.94;99209.56;5098995;28;20101;-51
2022/04/23 10:48:25;;;;;;;21.40;8.60;;;;;;;15.94;58.65;99205.44;5095065;28;20043;-46
2022/04/23 10:56:13;;;;;;;17.20;9.40;;;;;;;16.26;55.50;99210.34;5071543;27;20127;-46
2022/04/23 10:58:41;;;;;;;21.27;10.93;;;;;;;16.26;56.55;99207.75;5039226;28;20122;-47
2022/04/23 11:01:30;;;;;;;21.02;10.20;;;;;;;16.16;55.31;99215.09;5039079;28;20093;-49
2022/04/23 11:03:58;;;;;;;;;;;;;;;15.83;54.88;99210.22;5048259;28;20190;-42
2022/04/23 11:12:55;;;;;;;21.10;11.55;;;;;;;15.71;56.51;99215.91;5036143;28;20106;-51
2022/04/23 11:15:21;;;;;;;21.88;10.43;;;;;;;15.74;56.02;99213.19;5056040;28;20053;-46
2022/04/23 11:17:54;;;;;;;20.40;10.95;;;;;;;15.84;55.63;99217.13;5057183;28;20071;-46
2022/04/23 11:20:38;;;;;;;26.67;10.77;;;;;;;15.78;55.17;99217.38;5043765;28;20443;-46
2022/04/23 11:23:05;;;;;;;25.25;12.23;;;;;;;15.70;56.14;99224.66;5054387;28;20060;-47
2022/04/23 11:25:32;;;;;;;19.88;10.55;;;;;;;15.73;55.73;99221.91;5061471;28;20045;-51
2022/04/23 11:28:21;;;;;;;18.92;10.30;;;;;;;15.49;55.75;99232.34;5049591;28;20053;-47
2022/04/23 11:30:48;;;;;;;20.30;10.80;;;;;;;15.47;56.17;99224.56;5056508;28;20057;-44
2022/04/23 11:33:15;;;;;;;25.20;11.05;;;;;;;15.58;56.83;99226.81;5060503;28;20072;-49
2022/04/23 11:35:42;;;;;;;17.70;9.43;;;;;;;15.59;56.03;99225.91;5056585;28;20049;-42
2022/04/23 11:38:19;;;;;;;21.08;11.13;;;;;;;15.40;56.30;99234.38;5060529;28;20056;-45
2022/04/23 11:40:46;;;;;;;26.75;11.85;;;;;;;15.35;56.66;99225.88;5058068;28;20076;-45
2022/04/23 11:43:28;;;;;;;21.70;10.05;;;;;;;15.22;56.82;99232.44;5059947;28;20161;-43
2022/04/23 11:45:57;;;;;;;25.27;10.65;;;;;;;15.25;56.92;99229.72;5060275;28;20114;-45
2022/04/23 11:48:24;;;;;;;20.02;10.88;;;;;;;15.25;56.51;99227.09;5052942;28;20044;-44
2022/04/23 11:50:52;;;;;;;25.58;9.85;;;;;;;15.32;56.89;99231.22;5062410;28;20432;-43
2022/04/23 11:53:18;;;;;;;23.30;10.75;;;;;;;15.38;56.82;99224.91;5051315;28;20526;-43
2022/04/23 11:55:48;;;;;;;28.00;10.57;;;;;;;15.38;55.72;99220.56;5052722;28;20079;-41
2022/04/23 11:58:18;;;;;;;21.88;9.77;;;;;;;15.31;56.01;99220.81;5057149;28;20056;-40
2022/04/23 12:00:47;;;;;;;20.88;10.32;;;;;;;15.38;56.09;99220.56;5035710;28;20045;-43
2022/04/23 12:03:25;;;;;;;26.63;11.23;;;;;;;15.38;56.23;99214.47;5040396;28;20135;-47
2022/04/23 12:05:58;;;;;;;23.52;10.43;;;;;;;15.36;55.65;99206.72;5053395;28;20041;-50
2022/04/23 12:08:24;;;;;;;21.88;10.05;;;;;;;15.41;55.98;99203.94;5022473;28;20080;-46
2022/04/23 12:10:51;;;;;;;22.75;10.48;;;;;;;15.28;55.89;99208.75;5044986;28;20052;-51
2022/04/23 12:13:18;;;;;;;19.35;9.00;;;;;;;15.19;55.45;99209.09;5044955;28;20049;-50
2022/04/23 12:15:46;;;;;;;20.95;10.68;;;;;;;15.24;55.92;99209.75;5049667;28;20047;-44